Time;durP1;ratioP1;P1;durP2;ratioP2;P2;SDS_P1;SDS_P2;PMS_P1;PMS_P2;Temp;Humidity;BMP_temperature;BMP_pressure;BME280_temperature;BME280_humidity;BME280_pressure;Samples;Min_cycle;Max_cycle;Signal;HPM_P1;HPM_P2
2021/12/20 00:01:00;;;;;;;0.95;0.50;;;;;;;0.77;86.31;97713.20;1717311;83;21024;-78
2021/12/20 00:03:27;;;;;;;2.37;0.90;;;;;;;0.68;86.46;97714.30;1694353;83;21373;-78
2021/12/20 00:05:55;;;;;;;1.65;0.60;;;;;;;0.58;86.81;97718.04;1676808;83;21080;-78
2021/12/20 00:08:22;;;;;;;0.80;0.70;;;;;;;0.52;87.20;97723.77;1686531;83;21029;-78
2021/12/20 00:10:49;;;;;;;1.10;0.40;;;;;;;0.45;87.51;97730.77;1715177;82;21477;-78
2021/12/20 00:13:16;;;;;;;1.00;0.60;;;;;;;0.40;87.86;97730.52;1690787;83;21514;-78
2021/12/20 00:15:45;;;;;;;0.88;0.60;;;;;;;0.33;88.15;97727.30;1714365;83;21022;-78
2021/12/20 00:18:13;;;;;;;1.35;0.60;;;;;;;0.28;88.40;97735.09;1701305;83;21011;-78
2021/12/20 00:20:40;;;;;;;1.87;0.68;;;;;;;0.21;88.57;97735.29;1684060;84;21002;-78
2021/12/20 00:23:06;;;;;;;1.60;0.60;;;;;;;0.17;88.93;97742.23;1709477;82;20950;-79
2021/12/20 00:25:33;;;;;;;1.27;0.65;;;;;;;0.13;89.25;97746.19;1689246;83;21548;-79
2021/12/20 00:28:00;;;;;;;1.47;0.50;;;;;;;0.10;89.64;97750.94;1709985;83;21149;-78
2021/12/20 00:30:29;;;;;;;1.15;0.65;;;;;;;0.09;89.87;97742.88;1709532;83;21014;-78
2021/12/20 00:32:55;;;;;;;0.78;0.60;;;;;;;0.06;90.03;97747.22;1721675;83;21030;-78
2021/12/20 00:35:25;;;;;;;0.90;0.60;;;;;;;0.00;90.12;97753.36;1718008;83;21375;-78
2021/12/20 00:40:37;;;;;;;1.98;0.65;;;;;;;-0.08;90.53;97763.77;1684674;84;21078;-78
2021/12/20 00:43:04;;;;;;;1.65;0.57;;;;;;;-0.11;90.56;97770.23;1712804;83;21035;-77
2021/12/20 00:45:35;;;;;;;2.22;0.80;;;;;;;-0.15;90.46;97760.97;1675961;83;21078;-77
2021/12/20 00:48:04;;;;;;;1.45;0.60;;;;;;;-0.17;90.41;97767.83;1693465;82;21011;-77
2021/12/20 00:50:30;;;;;;;1.60;0.70;;;;;;;-0.19;90.48;97776.41;1716982;83;21224;-77
2021/12/20 00:52:57;;;;;;;2.67;0.60;;;;;;;-0.20;90.48;97773.48;1714123;82;20985;-77
2021/12/20 00:55:25;;;;;;;0.85;0.50;;;;;;;-0.18;90.51;97777.64;1692678;83;21084;-77
2021/12/20 00:57:55;;;;;;;0.70;0.37;;;;;;;-0.16;90.67;97775.89;1700950;83;21083;-77
2021/12/20 01:00:31;;;;;;;0.88;0.40;;;;;;;-0.13;90.76;97778.38;1715000;83;21033;-77
2021/12/20 01:02:58;;;;;;;1.95;0.60;;;;;;;-0.10;90.93;97776.19;1705997;83;21566;-77
2021/12/20 01:05:27;;;;;;;1.30;0.65;;;;;;;-0.07;91.08;97771.00;1714410;83;21414;-77
2021/12/20 01:07:57;;;;;;;1.30;0.50;;;;;;;0.00;90.80;97781.00;1720386;83;21021;-77
2021/12/20 01:10:25;;;;;;;0.80;0.40;;;;;;;0.07;90.09;97775.73;1712131;83;21475;-77
2021/12/20 01:12:54;;;;;;;1.45;0.35;;;;;;;0.14;89.47;97772.98;1710441;83;20994;-77
2021/12/20 01:15:28;;;;;;;0.20;0.20;;;;;;;0.23;88.28;97777.84;1714520;83;21563;-77
2021/12/20 01:17:54;;;;;;;0.65;0.50;;;;;;;0.31;87.50;97779.75;1691870;83;21002;-78
2021/12/20 01:20:21;;;;;;;0.55;0.40;;;;;;;0.41;86.38;97781.60;1717635;82;20982;-77
2021/12/20 01:22:49;;;;;;;0.88;0.40;;;;;;;0.48;85.48;97778.00;1714445;83;21097;-77
2021/12/20 01:25:15;;;;;;;0.72;0.50;;;;;;;0.55;84.74;97776.95;1720391;82;21049;-77
2021/12/20 01:27:42;;;;;;;1.22;0.28;;;;;;;0.61;84.75;97785.72;1692004;83;21546;-77
2021/12/20 01:30:11;;;;;;;1.15;0.30;;;;;;;0.66;84.30;97781.75;1717762;82;21414;-77
2021/12/20 01:32:38;;;;;;;1.20;0.57;;;;;;;0.70;84.11;97782.07;1689693;83;20981;-77
2021/12/20 01:35:06;;;;;;;0.90;0.50;;;;;;;0.71;84.31;97777.34;1685329;82;20969;-77
2021/12/20 01:37:32;;;;;;;0.80;0.40;;;;;;;0.72;84.51;97771.80;1704367;83;21092;-77
2021/12/20 01:39:59;;;;;;;1.35;0.50;;;;;;;0.72;84.63;97773.91;1707500;83;21137;-77
2021/12/20 01:42:29;;;;;;;4.17;0.60;;;;;;;0.72;84.81;97771.80;1718866;83;21072;-77
2021/12/20 01:44:57;;;;;;;0.93;0.40;;;;;;;0.72;84.98;97776.47;1703637;83;20990;-77
2021/12/20 01:47:32;;;;;;;0.90;0.40;;;;;;;0.72;84.99;97783.31;1689387;83;20965;-77
2021/12/20 01:50:14;;;;;;;0.85;0.35;;;;;;;0.72;84.79;97784.14;1716411;83;20957;-77
2021/12/20 01:52:28;;;;;;;0.90;0.57;;;;;;;0.76;84.80;97781.90;1700014;83;21163;-77
2021/12/20 01:54:54;;;;;;;1.02;0.50;;;;;;;0.78;84.95;97787.81;1712849;83;21147;-77
2021/12/20 01:57:23;;;;;;;1.20;0.40;;;;;;;0.79;85.13;97777.14;1689106;83;21001;-77
2021/12/20 01:59:49;;;;;;;1.12;0.40;;;;;;;0.81;85.15;97781.73;1716261;82;20962;-77
2021/12/20 02:02:15;;;;;;;0.60;0.45;;;;;;;0.82;85.38;97784.70;1713385;82;20958;-77
2021/12/20 02:04:48;;;;;;;2.27;0.75;;;;;;;0.81;85.64;97782.58;1712927;83;22071;-77
2021/12/20 02:07:32;;;;;;;1.70;0.60;;;;;;;0.81;85.74;97787.70;1709240;83;20973;-77
2021/12/20 02:09:42;;;;;;;0.50;0.37;;;;;;;0.79;85.60;97785.66;1720164;81;21584;-76
2021/12/20 02:12:09;;;;;;;0.20;0.20;;;;;;;0.78;85.91;97784.41;1720942;82;21131;-77
2021/12/20 02:14:36;;;;;;;0.80;0.40;;;;;;;0.78;86.02;97789.53;1724887;81;21116;-77
2021/12/20 02:17:03;;;;;;;1.20;0.40;;;;;;;0.78;86.22;97793.38;1717307;82;21529;-77
2021/12/20 02:19:29;;;;;;;1.22;0.30;;;;;;;0.76;86.24;97784.90;1720153;82;20977;-77
2021/12/20 02:21:55;;;;;;;1.27;0.47;;;;;;;0.76;86.25;97792.58;1704831;83;21081;-77
2021/12/20 02:24:22;;;;;;;1.37;0.47;;;;;;;0.77;86.31;97791.25;1693765;83;20966;-77
2021/12/20 02:26:49;;;;;;;0.40;0.28;;;;;;;0.76;86.31;97795.97;1707969;83;21536;-77
2021/12/20 02:29:17;;;;;;;0.40;0.37;;;;;;;0.77;86.37;97798.93;1711126;83;21708;-77
2021/12/20 02:37:26;;;;;;;0.98;0.50;;;;;;;0.83;86.56;97792.77;1696867;83;21006;-77
2021/12/20 02:39:46;;;;;;;1.55;0.40;;;;;;;0.86;86.72;97793.97;1706821;83;21078;-77
2021/12/20 02:42:16;;;;;;;0.30;0.30;;;;;;;0.87;86.77;97799.05;1677865;84;21147;-77
2021/12/20 02:44:53;;;;;;;0.57;0.30;;;;;;;0.88;86.81;97796.05;1706118;83;21439;-77
2021/12/20 02:47:28;;;;;;;0.90;0.60;;;;;;;0.88;86.89;97800.72;1713317;83;20997;-77
2021/12/20 02:49:46;;;;;;;0.42;0.40;;;;;;;0.88;86.94;97808.84;1713923;83;21002;-77
2021/12/20 02:52:12;;;;;;;0.78;0.40;;;;;;;0.88;87.13;97806.28;1712320;83;21497;-78
2021/12/20 02:54:39;;;;;;;1.62;0.40;;;;;;;0.86;87.37;97798.65;1705032;83;21146;-77
2021/12/20 02:57:06;;;;;;;0.95;0.40;;;;;;;0.87;87.47;97796.92;1705742;83;20979;-77
2021/12/20 02:59:32;;;;;;;2.70;0.80;;;;;;;0.88;87.63;97802.44;1688121;83;21052;-77
2021/12/20 03:02:04;;;;;;;0.75;0.50;;;;;;;0.87;87.84;97803.33;1706633;83;20975;-77
2021/12/20 03:04:30;;;;;;;0.70;0.50;;;;;;;0.88;87.75;97806.28;1671882;84;21497;-77
2021/12/20 03:07:00;;;;;;;1.77;0.60;;;;;;;0.88;87.71;97807.56;1657160;84;21747;-77
2021/12/20 03:09:32;;;;;;;0.90;0.60;;;;;;;0.87;87.74;97816.95;1700395;83;20993;-77
2021/12/20 03:12:01;;;;;;;0.50;0.27;;;;;;;0.88;87.81;97817.80;1716509;82;21115;-76
2021/12/20 03:14:33;;;;;;;2.10;0.65;;;;;;;0.88;87.63;97813.52;1683782;83;21669;-77
2021/12/20 03:16:58;;;;;;;0.70;0.35;;;;;;;0.89;87.64;97815.64;1710560;83;20993;-77
2021/12/20 03:19:25;;;;;;;0.70;0.40;;;;;;;0.90;87.52;97810.48;1690569;82;21128;-77
2021/12/20 03:21:51;;;;;;;0.93;0.40;;;;;;;0.90;87.44;97819.88;1720554;82;21088;-77
2021/12/20 03:24:20;;;;;;;0.72;0.30;;;;;;;0.89;87.23;97820.31;1703592;82;20972;-77
2021/12/20 03:26:46;;;;;;;1.15;0.50;;;;;;;0.89;87.14;97813.08;1712131;83;20957;-77
2021/12/20 03:29:13;;;;;;;1.05;0.70;;;;;;;0.87;87.05;97814.41;1710668;83;21094;-77
2021/12/20 03:31:39;;;;;;;1.52;0.50;;;;;;;0.83;87.16;97810.69;1717922;82;21490;-77
2021/12/20 03:34:06;;;;;;;1.12;0.45;;;;;;;0.80;87.25;97814.17;1723147;82;21048;-77
2021/12/20 03:36:33;;;;;;;0.53;0.30;;;;;;;0.75;87.22;97812.65;1716880;82;21560;-77
2021/12/20 03:39:00;;;;;;;1.30;0.47;;;;;;;0.70;87.42;97812.77;1718151;82;21956;-77
2021/12/20 03:41:27;;;;;;;0.82;0.42;;;;;;;0.63;87.43;97819.77;1690356;83;21132;-77
2021/12/20 03:43:53;;;;;;;0.57;0.50;;;;;;;0.56;87.38;97817.01;1717546;82;21459;-76
2021/12/20 03:46:20;;;;;;;1.00;0.33;;;;;;;0.46;87.55;97810.89;1705999;83;21044;-77
2021/12/20 03:48:46;;;;;;;0.50;0.40;;;;;;;0.36;87.77;97822.27;1685183;82;21548;-77
2021/12/20 03:51:13;;;;;;;0.65;0.25;;;;;;;0.28;88.08;97819.91;1720189;82;21543;-76
2021/12/20 03:53:39;;;;;;;0.42;0.40;;;;;;;0.20;88.38;97821.84;1715372;83;21580;-77
2021/12/20 03:56:06;;;;;;;1.45;0.40;;;;;;;0.16;88.73;97826.63;1712927;82;21100;-77
2021/12/20 03:58:34;;;;;;;1.65;0.50;;;;;;;0.11;88.99;97823.35;1713384;83;20991;-76
2021/12/20 04:01:04;;;;;;;0.68;0.53;;;;;;;0.08;89.18;97826.82;1712200;82;21051;-77
2021/12/20 04:03:33;;;;;;;0.72;0.60;;;;;;;0.07;89.40;97830.69;1712896;83;21018;-77
2021/12/20 04:05:59;;;;;;;0.78;0.50;;;;;;;0.07;89.62;97820.03;1718032;83;21069;-77
2021/12/20 04:08:26;;;;;;;2.15;0.60;;;;;;;0.10;89.82;97819.12;1663004;85;21123;-77
2021/12/20 04:10:52;;;;;;;0.90;0.50;;;;;;;0.15;89.95;97832.62;1711566;83;21638;-77
2021/12/20 04:13:18;;;;;;;1.07;0.60;;;;;;;0.19;90.03;97836.34;1709584;83;21483;-77
2021/12/20 04:15:45;;;;;;;0.53;0.40;;;;;;;0.24;90.12;97835.77;1711313;83;20962;-77
2021/12/20 04:18:11;;;;;;;0.40;0.35;;;;;;;0.30;90.15;97834.33;1717498;83;21147;-76
2021/12/20 04:20:38;;;;;;;0.68;0.50;;;;;;;0.37;90.06;97843.13;1691736;83;21105;-77
2021/12/20 04:23:05;;;;;;;2.30;0.40;;;;;;;0.40;90.17;97845.14;1694122;83;21010;-77
2021/12/20 04:25:31;;;;;;;0.72;0.40;;;;;;;0.44;90.38;97850.58;1684860;83;21195;-77
2021/12/20 04:27:58;;;;;;;0.60;0.30;;;;;;;0.47;90.59;97845.83;1718260;81;21143;-76
2021/12/20 04:30:28;;;;;;;0.57;0.50;;;;;;;0.48;90.62;97855.17;1718537;82;21162;-77
2021/12/20 04:32:53;;;;;;;1.65;0.42;;;;;;;0.47;90.75;97859.89;1678432;82;21256;-76
2021/12/20 04:35:20;;;;;;;0.35;0.20;;;;;;;0.42;90.90;97861.28;1717613;82;20974;-76
2021/12/20 04:37:49;;;;;;;0.35;0.20;;;;;;;0.33;90.94;97867.50;1713450;82;20993;-76
2021/12/20 04:40:19;;;;;;;0.35;0.33;;;;;;;0.24;91.17;97869.44;1716472;83;20973;-76
2021/12/20 04:42:52;;;;;;;0.10;0.10;;;;;;;0.15;91.83;97876.09;1715156;82;21080;-76
2021/12/20 04:45:20;;;;;;;0.53;0.50;;;;;;;0.07;92.51;97876.27;1711247;83;21160;-76
2021/12/20 04:47:46;;;;;;;0.88;0.72;;;;;;;-0.06;92.98;97874.91;1717164;82;21469;-76
2021/12/20 04:50:13;;;;;;;0.75;0.45;;;;;;;-0.16;93.32;97879.38;1721289;82;21097;-76
2021/12/20 04:52:41;;;;;;;0.60;0.50;;;;;;;-0.25;93.65;97881.33;1722568;82;21049;-76
2021/12/20 04:55:10;;;;;;;0.72;0.20;;;;;;;-0.30;94.05;97879.31;1718574;82;21072;-76
2021/12/20 04:57:38;;;;;;;0.25;0.20;;;;;;;-0.33;94.31;97878.10;1716788;82;21147;-76
2021/12/20 05:00:07;;;;;;;0.30;0.30;;;;;;;-0.34;94.61;97881.09;1687163;82;21079;-76
2021/12/20 05:02:34;;;;;;;0.40;0.30;;;;;;;-0.37;94.64;97883.72;1677676;82;21089;-76
2021/12/20 05:05:01;;;;;;;0.20;0.20;;;;;;;-0.39;94.56;97882.47;1719023;82;21010;-76
2021/12/20 05:07:27;;;;;;;0.88;0.60;;;;;;;-0.39;94.58;97887.58;1685029;83;20957;-76
2021/12/20 05:09:59;;;;;;;0.82;0.50;;;;;;;-0.38;94.74;97890.98;1691475;83;21054;-76
2021/12/20 05:12:23;;;;;;;0.93;0.50;;;;;;;-0.35;94.71;97895.58;1707995;83;21079;-76
2021/12/20 05:14:49;;;;;;;1.87;0.78;;;;;;;-0.30;94.57;97894.64;1707438;82;21057;-76
2021/12/20 05:17:17;;;;;;;0.93;0.65;;;;;;;-0.24;94.47;97902.17;1716563;82;21082;-76
2021/12/20 05:19:44;;;;;;;1.15;0.80;;;;;;;-0.22;94.17;97899.98;1715837;82;21005;-76
2021/12/20 05:22:12;;;;;;;2.17;1.07;;;;;;;-0.22;93.82;97893.60;1695225;81;21068;-76
2021/12/20 05:24:38;;;;;;;2.02;1.00;;;;;;;-0.26;93.79;97888.59;1717129;82;21052;-76
2021/12/20 05:27:05;;;;;;;1.60;0.98;;;;;;;-0.30;93.76;97890.81;1713460;82;20980;-76
2021/12/20 05:29:33;;;;;;;3.55;1.77;;;;;;;-0.34;93.64;97895.14;1721475;82;21060;-76
2021/12/20 05:32:02;;;;;;;2.33;1.57;;;;;;;-0.41;93.65;97890.64;1716651;82;20965;-76
2021/12/20 05:34:28;;;;;;;2.35;0.80;;;;;;;-0.48;93.75;97881.86;1719345;82;21180;-76
2021/12/20 05:36:54;;;;;;;1.45;0.85;;;;;;;-0.54;93.87;97885.82;1714692;83;20955;-76
2021/12/20 05:39:20;;;;;;;2.17;1.12;;;;;;;-0.58;93.95;97883.77;1713456;83;20998;-77
2021/12/20 05:41:47;;;;;;;2.02;1.00;;;;;;;-0.64;94.09;97892.02;1699217;83;21100;-77
2021/12/20 05:44:13;;;;;;;2.05;1.30;;;;;;;-0.71;94.23;97892.14;1717356;82;20991;-77
2021/12/20 05:46:40;;;;;;;1.05;0.85;;;;;;;-0.74;94.41;97894.76;1714263;83;21047;-77
2021/12/20 05:49:06;;;;;;;1.50;1.10;;;;;;;-0.77;94.55;97896.09;1653543;85;21220;-77
2021/12/20 05:51:32;;;;;;;6.65;3.33;;;;;;;-0.79;94.78;97898.27;1707760;82;21056;-76
2021/12/20 05:53:59;;;;;;;2.52;1.62;;;;;;;-0.77;95.07;97903.75;1693029;83;20962;-77
2021/12/20 05:56:26;;;;;;;3.10;1.87;;;;;;;-0.72;95.23;97911.32;1717144;83;21017;-77
2021/12/20 05:58:52;;;;;;;2.98;1.98;;;;;;;-0.65;95.27;97909.05;1716112;83;21504;-77
2021/12/20 06:01:19;;;;;;;4.72;2.98;;;;;;;-0.57;95.31;97911.41;1714075;83;20966;-77
2021/12/20 06:03:45;;;;;;;8.85;4.95;;;;;;;-0.50;95.31;97913.81;1709545;83;21002;-77
2021/12/20 06:06:12;;;;;;;8.15;3.80;;;;;;;-0.42;95.21;97918.77;1692872;83;21041;-77
2021/12/20 06:08:39;;;;;;;5.83;3.42;;;;;;;-0.34;95.24;97923.25;1719343;83;21426;-77
2021/12/20 06:11:06;;;;;;;8.95;4.40;;;;;;;-0.23;95.02;97929.41;1691151;83;21616;-77
2021/12/20 06:13:32;;;;;;;6.53;3.55;;;;;;;-0.16;94.87;97920.70;1733025;81;21133;-76
2021/12/20 06:15:59;;;;;;;5.65;3.33;;;;;;;-0.12;94.76;97918.05;1711051;81;21041;-76
2021/12/20 06:18:25;;;;;;;5.45;3.25;;;;;;;-0.05;94.81;97920.03;1719383;82;21010;-78
2021/12/20 06:20:52;;;;;;;5.83;2.60;;;;;;;0.02;94.60;97930.92;1723084;81;21111;-77
2021/12/20 06:23:19;;;;;;;5.62;3.00;;;;;;;0.06;94.40;97931.25;1721428;82;21485;-77
2021/12/20 06:25:45;;;;;;;3.40;2.33;;;;;;;0.09;94.37;97925.64;1719226;82;21113;-77
2021/12/20 06:28:11;;;;;;;3.47;2.50;;;;;;;0.18;94.48;97930.98;1738040;82;21383;-78
2021/12/20 06:30:38;;;;;;;15.23;9.65;;;;;;;0.26;94.35;97931.17;1724394;82;20974;-77
2021/12/20 06:33:05;;;;;;;61.70;31.02;;;;;;;0.29;94.13;97928.55;1725446;81;21063;-77
2021/12/20 06:35:31;;;;;;;42.27;24.07;;;;;;;0.33;94.06;97939.11;1729620;80;21500;-77
2021/12/20 06:38:03;;;;;;;21.05;13.80;;;;;;;0.35;94.06;97928.84;1706656;82;21015;-77
2021/12/20 06:40:34;;;;;;;7.03;5.00;;;;;;;0.36;94.06;97939.47;1691116;82;21101;-77
2021/12/20 06:43:02;;;;;;;3.70;2.45;;;;;;;0.41;93.85;97944.01;1732895;81;20959;-77
2021/12/20 06:45:30;;;;;;;3.17;2.15;;;;;;;0.43;93.52;97942.25;1716628;82;21042;-77
2021/12/20 06:47:57;;;;;;;2.27;1.42;;;;;;;0.44;93.02;97947.77;1710088;81;21075;-77
2021/12/20 06:50:26;;;;;;;3.45;2.10;;;;;;;0.43;92.80;97946.09;1721008;81;21100;-77
2021/12/20 06:52:53;;;;;;;5.00;2.92;;;;;;;0.45;92.67;97950.73;1729771;81;21511;-78
2021/12/20 06:55:20;;;;;;;7.28;5.90;;;;;;;0.48;92.59;97953.22;1726874;82;20970;-77
2021/12/20 06:57:46;;;;;;;3.95;2.98;;;;;;;0.51;92.35;97953.14;1701605;82;21136;-78
2021/12/20 07:00:14;;;;;;;2.67;1.50;;;;;;;0.57;91.96;97947.88;1732416;81;22173;-78
2021/12/20 07:02:41;;;;;;;2.20;1.40;;;;;;;0.61;91.37;97941.78;1705063;81;21053;-78
2021/12/20 07:05:09;;;;;;;3.50;2.35;;;;;;;0.65;90.99;97943.82;1727613;81;21408;-78
2021/12/20 07:07:35;;;;;;;4.67;3.37;;;;;;;0.67;90.75;97951.86;1718008;81;21042;-78
2021/12/20 07:10:04;;;;;;;3.20;2.10;;;;;;;0.73;90.28;97955.15;1717065;81;21093;-79
2021/12/20 07:12:33;;;;;;;3.10;1.80;;;;;;;0.74;89.91;97950.43;1719836;81;21792;-77
2021/12/20 07:14:59;;;;;;;2.33;1.70;;;;;;;0.78;89.35;97954.16;1694915;82;21045;-77
2021/12/20 07:17:26;;;;;;;4.05;2.40;;;;;;;0.81;89.13;97954.48;1725859;81;21002;-78
2021/12/20 07:19:53;;;;;;;2.45;1.50;;;;;;;0.81;88.61;97950.65;1734007;81;21431;-78
2021/12/20 07:22:24;;;;;;;4.83;2.85;;;;;;;0.86;88.25;97952.66;1706773;82;21031;-78
2021/12/20 07:24:51;;;;;;;2.80;1.98;;;;;;;0.91;88.31;97953.38;1657192;84;21564;-78
2021/12/20 07:27:20;;;;;;;4.50;1.60;;;;;;;0.98;87.69;97953.18;1660135;84;21041;-78
2021/12/20 07:29:47;;;;;;;3.62;1.85;;;;;;;1.04;87.33;97950.87;1690369;83;21027;-78
2021/12/20 07:32:13;;;;;;;6.97;3.83;;;;;;;1.09;86.95;97959.27;1688047;83;21506;-78
2021/12/20 07:34:40;;;;;;;6.87;4.45;;;;;;;1.15;86.58;97961.67;1715747;81;20990;-78
2021/12/20 07:37:07;;;;;;;4.80;2.60;;;;;;;1.18;86.14;97956.47;1698061;81;21073;-78
2021/12/20 07:39:35;;;;;;;2.22;1.60;;;;;;;1.20;85.31;97964.92;1708964;82;21586;-78
2021/12/20 07:42:03;;;;;;;2.80;1.10;;;;;;;1.22;84.90;97964.88;1720014;82;21062;-78
2021/12/20 07:44:31;;;;;;;3.12;1.87;;;;;;;1.20;84.39;97962.83;1694405;83;21215;-78
2021/12/20 07:46:58;;;;;;;2.55;1.40;;;;;;;1.19;84.67;97964.55;1713609;81;21007;-78
2021/12/20 07:49:24;;;;;;;6.08;1.57;;;;;;;1.19;84.42;97965.83;1722022;82;22171;-78
2021/12/20 07:51:53;;;;;;;2.70;2.12;;;;;;;1.25;84.37;97969.92;1726864;82;21525;-78
2021/12/20 07:54:20;;;;;;;2.92;2.17;;;;;;;1.30;84.49;97974.04;1723507;82;21012;-79
2021/12/20 07:56:46;;;;;;;2.55;1.80;;;;;;;1.38;84.47;97969.99;1758104;80;21030;-80
2021/12/20 07:59:13;;;;;;;3.10;1.70;;;;;;;1.48;84.00;97973.95;1717083;81;21083;-79
2021/12/20 08:01:39;;;;;;;2.05;1.67;;;;;;;1.50;82.96;97973.91;1741761;81;21511;-79
2021/12/20 08:04:24;;;;;;;4.40;1.95;;;;;;;1.51;82.75;97980.71;1721239;81;21085;-79
2021/12/20 08:06:52;;;;;;;10.65;6.65;;;;;;;1.50;82.21;97979.03;1697418;83;21007;-80
2021/12/20 08:09:38;;;;;;;8.00;4.90;;;;;;;1.49;82.19;97982.48;1711217;81;21050;-79
2021/12/20 08:12:07;;;;;;;6.00;3.45;;;;;;;1.52;81.93;97984.95;1719241;81;21054;-79
2021/12/20 08:14:52;;;;;;;11.97;7.45;;;;;;;1.51;81.32;97987.95;1729035;79;21097;-79
2021/12/20 08:17:18;;;;;;;11.35;7.47;;;;;;;1.54;81.20;97985.75;1703597;82;21185;-80
2021/12/20 08:19:45;;;;;;;15.90;9.15;;;;;;;1.53;80.70;97985.36;1710031;82;21051;-79
2021/12/20 08:22:11;;;;;;;16.30;10.70;;;;;;;1.51;80.37;97990.96;1728213;82;21404;-79
2021/12/20 08:24:38;;;;;;;15.95;10.08;;;;;;;1.46;80.63;97997.49;1724836;81;21133;-79
2021/12/20 08:27:05;;;;;;;26.57;14.80;;;;;;;1.44;80.70;97998.41;1732598;81;21772;-79
2021/12/20 08:29:31;;;;;;;21.87;12.88;;;;;;;1.44;80.77;97996.69;1694965;81;20954;-78
2021/12/20 08:32:01;;;;;;;21.73;13.50;;;;;;;1.48;80.55;97992.33;1729311;81;21438;-79
2021/12/20 08:34:30;;;;;;;14.80;9.78;;;;;;;1.49;80.15;97996.13;1731222;81;21102;-77
2021/12/20 08:36:57;;;;;;;23.57;15.28;;;;;;;1.52;79.60;98002.45;1724859;81;21074;-79
2021/12/20 08:39:24;;;;;;;27.82;18.75;;;;;;;1.53;79.40;98007.13;1690753;83;21145;-78
2021/12/20 08:42:09;;;;;;;17.55;11.88;;;;;;;1.52;79.17;98005.02;1696105;82;21124;-83
2021/12/20 08:44:42;;;;;;;14.75;10.05;;;;;;;1.49;79.14;98001.25;1720113;81;21143;-81
2021/12/20 08:47:26;;;;;;;9.90;6.75;;;;;;;1.46;79.22;98003.90;1717527;81;20995;-78
2021/12/20 08:49:54;;;;;;;7.78;4.90;;;;;;;1.47;79.12;98003.45;1726658;80;21132;-81
2021/12/20 08:52:22;;;;;;;4.25;3.12;;;;;;;1.50;79.13;98003.37;1731563;80;21986;-79
2021/12/20 08:55:07;;;;;;;3.65;2.05;;;;;;;1.55;78.71;98013.06;1710308;80;21704;-76
2021/12/20 08:57:34;;;;;;;1.77;1.17;;;;;;;1.58;78.39;98004.84;1727368;80;21124;-76
2021/12/20 09:00:01;;;;;;;2.02;1.55;;;;;;;1.62;77.96;97997.88;1740126;81;21477;-85
2021/12/20 09:02:28;;;;;;;2.83;1.57;;;;;;;1.66;78.18;97996.91;1710632;80;21108;-83
2021/12/20 09:04:55;;;;;;;2.87;1.70;;;;;;;1.71;77.40;98009.16;1729239;81;21524;-81
2021/12/20 09:07:41;;;;;;;3.15;1.82;;;;;;;1.74;77.56;98011.64;1733923;80;21033;-77
2021/12/20 09:10:11;;;;;;;1.80;1.17;;;;;;;1.77;77.29;98009.44;1726826;81;21546;-78
2021/12/20 09:12:40;;;;;;;1.90;1.47;;;;;;;1.76;76.72;98003.91;1726616;81;22412;-75
2021/12/20 09:15:07;;;;;;;3.22;1.50;;;;;;;1.76;76.88;98015.00;1726642;81;21566;-87
2021/12/20 09:17:36;;;;;;;1.55;1.22;;;;;;;1.73;76.51;98012.08;1704122;82;21050;-78
2021/12/20 09:20:03;;;;;;;2.27;1.70;;;;;;;1.72;76.56;98009.56;1728481;81;21495;-81
2021/12/20 09:22:38;;;;;;;4.95;1.65;;;;;;;1.67;76.68;98009.69;1726673;81;21137;-80
2021/12/20 09:24:58;;;;;;;1.98;1.70;;;;;;;1.64;77.05;98012.34;1665031;84;21034;-80
2021/12/20 09:27:25;;;;;;;2.52;1.37;;;;;;;1.66;76.96;98019.98;1724378;81;21002;-80
2021/12/20 09:29:51;;;;;;;2.65;2.42;;;;;;;1.68;77.00;98013.09;1722072;81;21496;-81
2021/12/20 09:32:18;;;;;;;5.20;3.25;;;;;;;1.68;76.55;98006.69;1705576;82;21085;-81
2021/12/20 09:34:45;;;;;;;3.72;2.25;;;;;;;1.71;76.85;98010.45;1690224;83;21584;-84
2021/12/20 09:37:12;;;;;;;2.52;2.02;;;;;;;1.72;76.77;98010.84;1688120;83;21663;-82
2021/12/20 09:39:39;;;;;;;2.95;1.80;;;;;;;1.71;76.56;98012.56;1731492;81;20951;-89
2021/12/20 09:42:07;;;;;;;1.98;1.75;;;;;;;1.68;76.35;98013.93;1737327;81;21190;-81
2021/12/20 09:44:33;;;;;;;2.52;1.90;;;;;;;1.68;76.39;98020.34;1682843;82;21026;-87
2021/12/20 09:47:01;;;;;;;4.58;3.00;;;;;;;1.68;76.31;98014.38;1721440;80;21073;-86
2021/12/20 09:49:29;;;;;;;4.87;3.27;;;;;;;1.71;76.42;98026.66;1714118;81;21080;-84
2021/12/20 09:51:57;;;;;;;4.20;2.33;;;;;;;1.73;76.34;98019.77;1720445;82;20990;-87
2021/12/20 09:54:25;;;;;;;3.33;2.27;;;;;;;1.73;76.14;98016.37;1723186;81;21603;-82
2021/12/20 09:56:53;;;;;;;4.28;2.40;;;;;;;1.70;76.21;98023.70;1703742;83;20990;-86
2021/12/20 09:59:20;;;;;;;2.40;1.60;;;;;;;1.70;76.19;98012.61;1694756;83;21125;-88
2021/12/20 10:01:49;;;;;;;4.97;3.00;;;;;;;1.68;76.11;98019.05;1706130;82;21027;-87
2021/12/20 10:04:18;;;;;;;3.80;2.55;;;;;;;1.70;76.44;98019.02;1677812;83;21079;-79
2021/12/20 10:06:44;;;;;;;4.85;2.52;;;;;;;1.75;76.34;98017.61;1703217;82;21561;-91
2021/12/20 10:09:14;;;;;;;3.75;2.45;;;;;;;1.76;76.01;98018.84;1714765;82;21004;-85
2021/12/20 10:11:41;;;;;;;4.22;3.58;;;;;;;1.80;75.88;98020.88;1703642;82;21048;-77
2021/12/20 10:14:14;;;;;;;3.05;2.20;;;;;;;1.85;75.82;98022.41;1726511;82;21141;-77
2021/12/20 10:16:43;;;;;;;1.70;1.50;;;;;;;1.87;75.32;98023.64;1728974;82;21680;-78
2021/12/20 10:19:30;;;;;;;3.17;1.57;;;;;;;1.88;75.01;98025.32;1718323;81;21230;-81
2021/12/20 10:21:58;;;;;;;1.77;1.62;;;;;;;1.87;74.80;98027.05;1739442;81;21049;-79
2021/12/20 10:24:34;;;;;;;3.27;2.00;;;;;;;1.82;74.37;98031.46;1728551;81;21160;-84
2021/12/20 10:27:01;;;;;;;3.52;1.95;;;;;;;1.76;74.44;98032.95;1711896;81;21051;-86
2021/12/20 10:29:27;;;;;;;2.60;1.90;;;;;;;1.76;74.41;98029.09;1741509;81;21059;-89
2021/12/20 10:31:54;;;;;;;3.20;2.00;;;;;;;1.75;74.02;98029.98;1740067;81;21129;-83
2021/12/20 10:34:33;;;;;;;3.80;1.82;;;;;;;1.73;74.21;98030.02;1713807;81;21499;-83
2021/12/20 10:37:01;;;;;;;3.30;1.82;;;;;;;1.76;74.73;98039.35;1715365;82;21005;-80
2021/12/20 10:39:38;;;;;;;2.70;2.00;;;;;;;1.77;74.04;98032.50;1736132;81;20963;-80
2021/12/20 10:42:29;;;;;;;3.02;1.70;;;;;;;1.77;74.75;98034.63;1733308;81;21183;-78
2021/12/20 10:45:15;;;;;;;3.22;1.77;;;;;;;1.82;74.61;98033.19;1735204;81;21959;-78
2021/12/20 10:47:42;;;;;;;2.33;1.70;;;;;;;1.86;74.81;98034.78;1720998;81;21011;-81
2021/12/20 10:50:40;;;;;;;2.83;1.62;;;;;;;1.92;74.75;98035.89;1724881;80;21060;-84
2021/12/20 10:53:17;;;;;;;2.30;1.55;;;;;;;1.98;74.61;98036.56;1696616;82;21151;-83
2021/12/20 10:55:52;;;;;;;3.20;2.33;;;;;;;2.04;73.05;98031.66;1722647;81;21609;-81
2021/12/20 10:58:29;;;;;;;5.10;3.47;;;;;;;2.06;72.47;98034.58;1724385;81;21293;-84
2021/12/20 11:01:17;;;;;;;3.58;1.70;;;;;;;2.11;72.01;98036.17;1720588;81;21081;-83
2021/12/20 11:03:44;;;;;;;1.42;1.10;;;;;;;2.16;70.78;98047.14;1710913;81;21013;-80
2021/12/20 11:11:39;;;;;;;2.10;1.52;;;;;;;2.17;68.46;98039.84;1733107;80;21164;-79
2021/12/20 11:14:06;;;;;;;15.28;9.60;;;;;;;2.16;68.22;98039.00;1741059;81;21080;-76
2021/12/20 11:16:43;;;;;;;6.53;3.70;;;;;;;2.13;68.98;98031.40;1733264;81;21177;-77
2021/12/20 11:19:23;;;;;;;5.53;2.87;;;;;;;2.15;69.66;98026.22;1712426;81;21077;-76
2021/12/20 11:22:10;;;;;;;9.80;6.20;;;;;;;2.18;70.30;98027.42;1709374;81;21038;-81
2021/12/20 11:24:54;;;;;;;7.40;5.03;;;;;;;2.20;70.59;98025.65;1718043;81;21286;-77
2021/12/20 11:27:33;;;;;;;11.10;9.78;;;;;;;2.16;70.60;98027.91;1704771;82;21072;-83
2021/12/20 11:30:12;;;;;;;6.65;4.80;;;;;;;2.08;71.54;98028.13;1674917;84;21025;-78
2021/12/20 11:32:40;;;;;;;6.87;5.75;;;;;;;2.07;72.16;98026.45;1646772;84;20976;-78
2021/12/20 11:35:08;;;;;;;15.10;10.50;;;;;;;2.10;72.91;98021.67;1657954;85;21020;-78
2021/12/20 11:37:35;;;;;;;11.57;8.15;;;;;;;2.13;73.46;98026.71;1641929;85;21918;-78
2021/12/20 11:40:06;;;;;;;6.72;5.30;;;;;;;2.17;73.72;98031.70;1639187;84;21345;-77
2021/12/20 11:42:34;;;;;;;2.98;2.52;;;;;;;2.15;74.08;98026.22;1692459;82;21101;-78
2021/12/20 11:45:03;;;;;;;5.08;3.65;;;;;;;2.15;74.32;98032.20;1689897;83;21100;-79
2021/12/20 11:47:46;;;;;;;3.50;2.35;;;;;;;2.09;73.95;98031.09;1691404;83;21117;-77
2021/12/20 11:50:16;;;;;;;2.42;1.80;;;;;;;2.01;73.80;98031.31;1719444;82;21139;-78
2021/12/20 11:52:58;;;;;;;3.72;2.22;;;;;;;1.91;73.43;98041.90;1718770;81;21194;-77
2021/12/20 11:55:28;;;;;;;2.98;2.20;;;;;;;1.83;74.15;98033.58;1713752;80;21011;-77
2021/12/20 11:57:59;;;;;;;5.17;3.52;;;;;;;1.73;74.86;98033.87;1716969;82;21492;-77
2021/12/20 12:00:38;;;;;;;5.45;3.42;;;;;;;1.69;75.66;98039.12;1715456;81;21119;-77